sensor_id;sensor_type;location;lat;lon;timestamp;pressure;altitude;pressure_sealevel;temperature;humidity
11017;BME280;54687;50.800;6.772;2023-11-21T00:01:01;95393.06;;;-144.06;28.22
11017;BME280;54687;50.800;6.772;2023-11-21T00:03:29;95407.88;;;-144.06;28.28
11017;BME280;54687;50.800;6.772;2023-11-21T00:05:56;95395.19;;;-144.06;28.28
11017;BME280;54687;50.800;6.772;2023-11-21T00:08:24;95386.72;;;-144.06;28.33
11017;BME280;54687;50.800;6.772;2023-11-21T00:10:50;95403.66;;;-144.06;28.33
11017;BME280;54687;50.800;6.772;2023-11-21T00:13:17;95369.78;;;-144.06;28.19
11017;BME280;54687;50.800;6.772;2023-11-21T00:15:44;95378.25;;;-144.06;28.27
11017;BME280;54687;50.800;6.772;2023-11-21T00:18:10;95350.72;;;-144.06;28.32
11017;BME280;54687;50.800;6.772;2023-11-21T00:20:37;95386.72;;;-144.06;28.33
11017;BME280;54687;50.800;6.772;2023-11-21T00:23:04;95390.94;;;-144.06;28.43
11017;BME280;54687;50.800;6.772;2023-11-21T00:25:32;95414.25;;;-144.06;28.21
11017;BME280;54687;50.800;6.772;2023-11-21T00:27:58;95365.53;;;-144.06;28.30
11017;BME280;54687;50.800;6.772;2023-11-21T00:30:26;95374.00;;;-144.06;28.27
11017;BME280;54687;50.800;6.772;2023-11-21T00:32:54;95361.31;;;-144.06;28.19
11017;BME280;54687;50.800;6.772;2023-11-21T00:35:20;95354.97;;;-144.06;28.23
11017;BME280;54687;50.800;6.772;2023-11-21T00:37:47;95399.44;;;-144.06;28.29
11017;BME280;54687;50.800;6.772;2023-11-21T00:40:15;95446.00;;;-144.06;28.41
11017;BME280;54687;50.800;6.772;2023-11-21T00:42:46;95433.31;;;-144.06;28.48
11017;BME280;54687;50.800;6.772;2023-11-21T00:45:12;95397.31;;;-144.06;28.41
11017;BME280;54687;50.800;6.772;2023-11-21T00:47:39;95365.53;;;-144.06;28.43
11017;BME280;54687;50.800;6.772;2023-11-21T00:50:06;95382.47;;;-144.06;28.35
11017;BME280;54687;50.800;6.772;2023-11-21T00:52:33;95388.84;;;-144.06;28.44
11017;BME280;54687;50.800;6.772;2023-11-21T00:55:00;95399.44;;;-144.06;28.33
11017;BME280;54687;50.800;6.772;2023-11-21T00:57:26;95365.53;;;-144.06;28.37
11017;BME280;54687;50.800;6.772;2023-11-21T00:59:54;95342.25;;;-144.06;28.24
11017;BME280;54687;50.800;6.772;2023-11-21T01:02:21;95285.09;;;-144.06;28.21
11017;BME280;54687;50.800;6.772;2023-11-21T01:04:48;95312.63;;;-144.06;28.21
11017;BME280;54687;50.800;6.772;2023-11-21T01:07:14;95280.84;;;-144.06;28.09
11017;BME280;54687;50.800;6.772;2023-11-21T01:09:42;95331.66;;;-144.06;28.17
11017;BME280;54687;50.800;6.772;2023-11-21T01:12:09;95293.56;;;-144.06;28.11
11017;BME280;54687;50.800;6.772;2023-11-21T01:14:36;95327.44;;;-144.06;28.27
11017;BME280;54687;50.800;6.772;2023-11-21T01:17:04;95318.97;;;-144.06;28.33
11017;BME280;54687;50.800;6.772;2023-11-21T01:19:33;95335.91;;;-144.06;28.20
11017;BME280;54687;50.800;6.772;2023-11-21T01:22:01;95331.66;;;-144.06;28.22
11017;BME280;54687;50.800;6.772;2023-11-21T01:24:28;95348.59;;;-144.06;28.35
11017;BME280;54687;50.800;6.772;2023-11-21T01:26:55;95361.31;;;-144.06;28.39
11017;BME280;54687;50.800;6.772;2023-11-21T01:29:21;95369.78;;;-144.06;28.38
11017;BME280;54687;50.800;6.772;2023-11-21T01:31:49;95395.19;;;-144.06;28.42
11017;BME280;54687;50.800;6.772;2023-11-21T01:34:16;95405.78;;;-144.06;28.54
11017;BME280;54687;50.800;6.772;2023-11-21T01:36:45;95467.19;;;-144.06;28.60
11017;BME280;54687;50.800;6.772;2023-11-21T01:39:11;95450.25;;;-144.06;28.50
11017;BME280;54687;50.800;6.772;2023-11-21T01:41:43;95462.94;;;-144.06;28.53
11017;BME280;54687;50.800;6.772;2023-11-21T01:44:13;95429.06;;;-144.06;28.48
11017;BME280;54687;50.800;6.772;2023-11-21T01:46:41;95420.59;;;-144.06;28.38
11017;BME280;54687;50.800;6.772;2023-11-21T01:49:09;95393.06;;;-144.06;28.41
11017;BME280;54687;50.800;6.772;2023-11-21T01:51:40;95395.19;;;-144.06;28.50
11017;BME280;54687;50.800;6.772;2023-11-21T01:54:09;95407.88;;;-144.06;28.43
11017;BME280;54687;50.800;6.772;2023-11-21T01:56:37;95446.00;;;-144.06;28.32
11017;BME280;54687;50.800;6.772;2023-11-21T01:59:04;95369.78;;;-144.06;28.35
11017;BME280;54687;50.800;6.772;2023-11-21T02:01:33;95467.19;;;-144.06;28.47
11017;BME280;54687;50.800;6.772;2023-11-21T02:04:00;95403.66;;;-144.06;28.33
11017;BME280;54687;50.800;6.772;2023-11-21T02:06:28;95399.44;;;-144.06;28.38
11017;BME280;54687;50.800;6.772;2023-11-21T02:08:58;95395.19;;;-144.06;28.49
11017;BME280;54687;50.800;6.772;2023-11-21T02:11:25;95399.44;;;-144.06;28.37
11017;BME280;54687;50.800;6.772;2023-11-21T02:13:53;95369.78;;;-144.06;28.41
11017;BME280;54687;50.800;6.772;2023-11-21T02:16:21;95348.59;;;-144.06;28.22
11017;BME280;54687;50.800;6.772;2023-11-21T02:18:48;95437.53;;;-144.06;28.23
11017;BME280;54687;50.800;6.772;2023-11-21T02:21:15;95395.19;;;-144.06;28.16
11017;BME280;54687;50.800;6.772;2023-11-21T02:23:43;95439.66;;;-144.06;28.14
11017;BME280;54687;50.800;6.772;2023-11-21T02:26:11;95405.78;;;-144.06;28.14
11017;BME280;54687;50.800;6.772;2023-11-21T02:28:39;95399.44;;;-144.06;28.29
11017;BME280;54687;50.800;6.772;2023-11-21T02:31:06;95395.19;;;-144.06;28.14
11017;BME280;54687;50.800;6.772;2023-11-21T02:33:33;95437.53;;;-144.06;28.35
11017;BME280;54687;50.800;6.772;2023-11-21T02:36:01;95378.25;;;-144.06;28.20
11017;BME280;54687;50.800;6.772;2023-11-21T02:38:28;95352.84;;;-144.06;28.18
11017;BME280;54687;50.800;6.772;2023-11-21T02:40:57;95369.78;;;-144.06;28.21
11017;BME280;54687;50.800;6.772;2023-11-21T02:43:24;95433.31;;;-144.06;27.98
11017;BME280;54687;50.800;6.772;2023-11-21T02:45:51;95403.66;;;-144.06;28.07
11017;BME280;54687;50.800;6.772;2023-11-21T02:48:17;95462.94;;;-144.06;28.09
11017;BME280;54687;50.800;6.772;2023-11-21T02:50:44;95450.25;;;-144.06;28.18
11017;BME280;54687;50.800;6.772;2023-11-21T02:53:10;95424.84;;;-144.06;28.16
11017;BME280;54687;50.800;6.772;2023-11-21T02:55:37;95454.47;;;-144.06;28.09
11017;BME280;54687;50.800;6.772;2023-11-21T02:58:05;95429.06;;;-144.06;28.22
11017;BME280;54687;50.800;6.772;2023-11-21T03:00:32;95475.66;;;-144.06;28.11
11017;BME280;54687;50.800;6.772;2023-11-21T03:02:59;95405.78;;;-144.06;28.17
11017;BME280;54687;50.800;6.772;2023-11-21T03:05:25;95454.47;;;-144.06;28.21
11017;BME280;54687;50.800;6.772;2023-11-21T03:07:54;95458.72;;;-144.06;28.09
11017;BME280;54687;50.800;6.772;2023-11-21T03:10:21;95488.34;;;-144.06;28.27
11017;BME280;54687;50.800;6.772;2023-11-21T03:12:48;95441.78;;;-144.06;28.25
11017;BME280;54687;50.800;6.772;2023-11-21T03:15:16;95437.53;;;-144.06;28.20
11017;BME280;54687;50.800;6.772;2023-11-21T03:17:43;95437.53;;;-144.06;27.96
11017;BME280;54687;50.800;6.772;2023-11-21T03:20:10;95439.66;;;-144.06;28.15
11017;BME280;54687;50.800;6.772;2023-11-21T03:22:37;95405.78;;;-144.06;28.15
11017;BME280;54687;50.800;6.772;2023-11-21T03:25:04;95390.94;;;-144.06;28.04
11017;BME280;54687;50.800;6.772;2023-11-21T03:27:31;95412.13;;;-144.06;27.90
11017;BME280;54687;50.800;6.772;2023-11-21T03:29:58;95401.53;;;-144.06;27.90
11017;BME280;54687;50.800;6.772;2023-11-21T03:32:26;95403.66;;;-144.06;28.16
11017;BME280;54687;50.800;6.772;2023-11-21T03:34:54;95382.47;;;-144.06;28.05
11017;BME280;54687;50.800;6.772;2023-11-21T03:37:23;95374.00;;;-144.06;28.05
11017;BME280;54687;50.800;6.772;2023-11-21T03:39:50;95420.59;;;-144.06;27.89
11017;BME280;54687;50.800;6.772;2023-11-21T03:42:17;95399.44;;;-144.06;27.91
11017;BME280;54687;50.800;6.772;2023-11-21T03:44:43;95420.59;;;-144.06;28.14
11017;BME280;54687;50.800;6.772;2023-11-21T03:47:10;95429.06;;;-144.06;28.16
11017;BME280;54687;50.800;6.772;2023-11-21T03:49:38;95437.53;;;-144.06;28.02
11017;BME280;54687;50.800;6.772;2023-11-21T03:52:05;95416.34;;;-144.06;28.04
11017;BME280;54687;50.800;6.772;2023-11-21T03:54:34;95435.41;;;-144.06;28.14
11017;BME280;54687;50.800;6.772;2023-11-21T03:57:01;95420.59;;;-144.06;28.14
11017;BME280;54687;50.800;6.772;2023-11-21T03:59:28;95399.44;;;-144.06;27.99
11017;BME280;54687;50.800;6.772;2023-11-21T04:01:55;95410.00;;;-144.06;28.05
11017;BME280;54687;50.800;6.772;2023-11-21T04:04:22;95471.41;;;-144.06;28.25
11017;BME280;54687;50.800;6.772;2023-11-21T04:06:50;95462.94;;;-144.06;28.01
11017;BME280;54687;50.800;6.772;2023-11-21T04:09:18;95462.94;;;-144.06;28.26
11017;BME280;54687;50.800;6.772;2023-11-21T04:11:44;95456.59;;;-144.06;28.06
11017;BME280;54687;50.800;6.772;2023-11-21T04:14:11;95450.25;;;-144.06;28.09
11017;BME280;54687;50.800;6.772;2023-11-21T04:16:37;95454.47;;;-144.06;28.13
11017;BME280;54687;50.800;6.772;2023-11-21T04:19:04;95462.94;;;-144.06;28.16
11017;BME280;54687;50.800;6.772;2023-11-21T04:21:30;95454.47;;;-144.06;28.14
11017;BME280;54687;50.800;6.772;2023-11-21T04:24:00;95486.22;;;-144.06;27.91
11017;BME280;54687;50.800;6.772;2023-11-21T04:26:26;95454.47;;;-144.06;27.96
11017;BME280;54687;50.800;6.772;2023-11-21T04:28:53;95477.75;;;-144.06;28.02
11017;BME280;54687;50.800;6.772;2023-11-21T04:31:19;95475.66;;;-144.06;27.98
11017;BME280;54687;50.800;6.772;2023-11-21T04:33:46;95471.41;;;-144.06;27.97
11017;BME280;54687;50.800;6.772;2023-11-21T04:36:12;95496.81;;;-144.06;28.09
11017;BME280;54687;50.800;6.772;2023-11-21T04:38:39;95450.25;;;-144.06;28.06
11017;BME280;54687;50.800;6.772;2023-11-21T04:41:08;95399.44;;;-144.06;28.12
11017;BME280;54687;50.800;6.772;2023-11-21T04:43:34;95376.13;;;-144.06;27.96
11017;BME280;54687;50.800;6.772;2023-11-21T04:46:01;95407.88;;;-144.06;27.90
11017;BME280;54687;50.800;6.772;2023-11-21T04:48:28;95369.78;;;-144.06;27.98
11017;BME280;54687;50.800;6.772;2023-11-21T04:50:54;95367.66;;;-144.06;27.86
11017;BME280;54687;50.800;6.772;2023-11-21T04:53:21;95414.25;;;-144.06;27.84
11017;BME280;54687;50.800;6.772;2023-11-21T04:55:48;95369.78;;;-144.06;27.99
11017;BME280;54687;50.800;6.772;2023-11-21T04:58:16;95340.13;;;-144.06;27.81
11017;BME280;54687;50.800;6.772;2023-11-21T05:00:43;95352.84;;;-144.06;27.71
11017;BME280;54687;50.800;6.772;2023-11-21T05:03:09;95365.53;;;-144.06;27.90
11017;BME280;54687;50.800;6.772;2023-11-21T05:05:37;95390.94;;;-144.06;27.84
11017;BME280;54687;50.800;6.772;2023-11-21T05:08:03;95361.31;;;-144.06;27.84
11017;BME280;54687;50.800;6.772;2023-11-21T05:10:30;95352.84;;;-144.06;27.92
11017;BME280;54687;50.800;6.772;2023-11-21T05:12:57;95359.19;;;-144.06;27.88
11017;BME280;54687;50.800;6.772;2023-11-21T05:15:25;95331.66;;;-144.06;28.04
11017;BME280;54687;50.800;6.772;2023-11-21T05:17:52;95359.19;;;-144.06;27.84
11017;BME280;54687;50.800;6.772;2023-11-21T05:20:20;95357.06;;;-144.06;27.74
11017;BME280;54687;50.800;6.772;2023-11-21T05:22:47;95333.78;;;-144.06;27.68
11017;BME280;54687;50.800;6.772;2023-11-21T05:25:15;95382.47;;;-144.06;27.92
11017;BME280;54687;50.800;6.772;2023-11-21T05:27:43;95357.06;;;-144.06;27.90
11017;BME280;54687;50.800;6.772;2023-11-21T05:30:10;95390.94;;;-144.06;27.93
11017;BME280;54687;50.800;6.772;2023-11-21T05:32:40;95405.78;;;-144.06;28.00
11017;BME280;54687;50.800;6.772;2023-11-21T05:35:08;95388.84;;;-144.06;27.97
11017;BME280;54687;50.800;6.772;2023-11-21T05:37:38;95357.06;;;-144.06;27.91
11017;BME280;54687;50.800;6.772;2023-11-21T05:40:06;95407.88;;;-144.06;28.01
11017;BME280;54687;50.800;6.772;2023-11-21T05:42:33;95382.47;;;-144.06;27.94
11017;BME280;54687;50.800;6.772;2023-11-21T05:45:00;95374.00;;;-144.06;27.90
11017;BME280;54687;50.800;6.772;2023-11-21T05:47:36;95314.72;;;-144.06;27.77
11017;BME280;54687;50.800;6.772;2023-11-21T05:50:05;95335.91;;;-144.06;27.72
11017;BME280;54687;50.800;6.772;2023-11-21T05:52:35;95306.25;;;-144.06;27.86
11017;BME280;54687;50.800;6.772;2023-11-21T05:55:02;95357.06;;;-144.06;27.72
11017;BME280;54687;50.800;6.772;2023-11-21T05:57:30;95325.31;;;-144.06;27.76
11017;BME280;54687;50.800;6.772;2023-11-21T05:59:56;95318.97;;;-144.06;27.76
11017;BME280;54687;50.800;6.772;2023-11-21T06:02:23;95359.19;;;-144.06;27.76
11017;BME280;54687;50.800;6.772;2023-11-21T06:04:50;95348.59;;;-144.06;27.74
11017;BME280;54687;50.800;6.772;2023-11-21T06:07:18;95365.53;;;-144.06;27.76
11017;BME280;54687;50.800;6.772;2023-11-21T06:09:45;95350.72;;;-144.06;27.83
11017;BME280;54687;50.800;6.772;2023-11-21T06:12:11;95401.53;;;-144.06;27.77
11017;BME280;54687;50.800;6.772;2023-11-21T06:14:38;95354.97;;;-144.06;27.87
11017;BME280;54687;50.800;6.772;2023-11-21T06:17:04;95441.78;;;-144.06;27.65
11017;BME280;54687;50.800;6.772;2023-11-21T06:19:31;95335.91;;;-144.06;27.68
11017;BME280;54687;50.800;6.772;2023-11-21T06:21:57;95374.00;;;-144.06;27.84
11017;BME280;54687;50.800;6.772;2023-11-21T06:24:26;95390.94;;;-144.06;27.70
11017;BME280;54687;50.800;6.772;2023-11-21T06:26:53;95306.25;;;-144.06;27.87
11017;BME280;54687;50.800;6.772;2023-11-21T06:29:20;95390.94;;;-144.06;27.72
11017;BME280;54687;50.800;6.772;2023-11-21T06:31:47;95369.78;;;-144.06;27.72
11017;BME280;54687;50.800;6.772;2023-11-21T06:34:13;95293.56;;;-144.06;27.73
11017;BME280;54687;50.800;6.772;2023-11-21T06:36:40;95280.84;;;-144.06;27.74
11017;BME280;54687;50.800;6.772;2023-11-21T06:39:06;95316.84;;;-144.06;27.75
11017;BME280;54687;50.800;6.772;2023-11-21T06:41:35;95302.03;;;-144.06;27.82
11017;BME280;54687;50.800;6.772;2023-11-21T06:44:04;95352.84;;;-144.06;27.65
11017;BME280;54687;50.800;6.772;2023-11-21T06:46:30;95295.69;;;-144.06;27.72
11017;BME280;54687;50.800;6.772;2023-11-21T06:48:57;95274.50;;;-144.06;27.57
11017;BME280;54687;50.800;6.772;2023-11-21T06:51:24;95331.66;;;-144.06;27.60
11017;BME280;54687;50.800;6.772;2023-11-21T06:53:50;95289.31;;;-144.06;27.59
11017;BME280;54687;50.800;6.772;2023-11-21T06:56:18;95225.81;;;-144.06;27.48
11017;BME280;54687;50.800;6.772;2023-11-21T06:58:46;95251.22;;;-144.06;27.51
11017;BME280;54687;50.800;6.772;2023-11-21T07:01:13;95238.50;;;-144.06;27.53
11017;BME280;54687;50.800;6.772;2023-11-21T07:03:40;95274.50;;;-144.06;27.52
11017;BME280;54687;50.800;6.772;2023-11-21T07:06:08;95213.09;;;-144.06;27.64
11017;BME280;54687;50.800;6.772;2023-11-21T07:08:35;95276.63;;;-144.06;27.59
11017;BME280;54687;50.800;6.772;2023-11-21T07:11:02;95191.94;;;-144.06;27.66
11017;BME280;54687;50.800;6.772;2023-11-21T07:13:29;95223.69;;;-144.06;27.60
11017;BME280;54687;50.800;6.772;2023-11-21T07:15:57;95236.41;;;-144.06;27.62
11017;BME280;54687;50.800;6.772;2023-11-21T07:18:25;95179.22;;;-144.06;27.62
11017;BME280;54687;50.800;6.772;2023-11-21T07:20:51;95170.75;;;-144.06;27.45
11017;BME280;54687;50.800;6.772;2023-11-21T07:23:18;95132.66;;;-144.06;27.52
11017;BME280;54687;50.800;6.772;2023-11-21T07:25:45;95145.34;;;-144.06;27.45
11017;BME280;54687;50.800;6.772;2023-11-21T07:28:11;95124.19;;;-144.06;27.60
11017;BME280;54687;50.800;6.772;2023-11-21T07:30:38;95107.25;;;-144.06;27.44
11017;BME280;54687;50.800;6.772;2023-11-21T07:33:06;95122.06;;;-144.06;27.33
11017;BME280;54687;50.800;6.772;2023-11-21T07:35:32;95096.66;;;-144.06;27.16
11017;BME280;54687;50.800;6.772;2023-11-21T07:37:59;95081.84;;;-144.06;27.45
11017;BME280;54687;50.800;6.772;2023-11-21T07:40:26;95111.47;;;-144.06;27.47
11017;BME280;54687;50.800;6.772;2023-11-21T07:42:53;95119.94;;;-144.06;27.23
11017;BME280;54687;50.800;6.772;2023-11-21T07:45:22;95090.31;;;-144.06;27.28
11017;BME280;54687;50.800;6.772;2023-11-21T07:47:49;95103.00;;;-144.06;27.36
11017;BME280;54687;50.800;6.772;2023-11-21T07:50:17;95086.06;;;-144.06;27.33
11017;BME280;54687;50.800;6.772;2023-11-21T07:52:44;95149.59;;;-144.06;27.35
11017;BME280;54687;50.800;6.772;2023-11-21T07:55:11;95094.53;;;-144.06;27.30
11017;BME280;54687;50.800;6.772;2023-11-21T07:57:37;95062.78;;;-144.06;27.23
11017;BME280;54687;50.800;6.772;2023-11-21T08:00:05;95111.47;;;-144.06;27.18
11017;BME280;54687;50.800;6.772;2023-11-21T08:02:34;95111.47;;;-144.06;27.30
11017;BME280;54687;50.800;6.772;2023-11-21T08:05:01;95039.50;;;-144.06;27.23
11017;BME280;54687;50.800;6.772;2023-11-21T08:07:29;95005.63;;;-144.06;27.17
11017;BME280;54687;50.800;6.772;2023-11-21T08:09:56;95026.81;;;-144.06;27.23
11017;BME280;54687;50.800;6.772;2023-11-21T08:12:23;94967.53;;;-144.06;26.97
11017;BME280;54687;50.800;6.772;2023-11-21T08:14:53;94997.16;;;-144.06;27.08
11017;BME280;54687;50.800;6.772;2023-11-21T08:17:20;94973.88;;;-144.06;26.92
11017;BME280;54687;50.800;6.772;2023-11-21T08:19:46;95022.56;;;-144.06;26.98
11017;BME280;54687;50.800;6.772;2023-11-21T08:22:15;94984.47;;;-144.06;27.16
11017;BME280;54687;50.800;6.772;2023-11-21T08:24:43;94965.41;;;-144.06;27.04
11017;BME280;54687;50.800;6.772;2023-11-21T08:27:09;94925.19;;;-144.06;27.07
11017;BME280;54687;50.800;6.772;2023-11-21T08:29:36;94923.06;;;-144.06;26.95
11017;BME280;54687;50.800;6.772;2023-11-21T08:32:04;94906.13;;;-144.06;27.02
11017;BME280;54687;50.800;6.772;2023-11-21T08:34:30;94980.22;;;-144.06;27.08
11017;BME280;54687;50.800;6.772;2023-11-21T08:36:57;94910.38;;;-144.06;26.81
11017;BME280;54687;50.800;6.772;2023-11-21T08:39:24;94959.06;;;-144.06;26.84
11017;BME280;54687;50.800;6.772;2023-11-21T08:41:53;94959.06;;;-144.06;26.89
11017;BME280;54687;50.800;6.772;2023-11-21T08:44:20;95028.91;;;-144.06;27.09
11017;BME280;54687;50.800;6.772;2023-11-21T08:46:47;94995.03;;;-144.06;27.08
11017;BME280;54687;50.800;6.772;2023-11-21T08:49:13;94995.03;;;-144.06;27.12
11017;BME280;54687;50.800;6.772;2023-11-21T08:51:40;94946.34;;;-144.06;26.91
11017;BME280;54687;50.800;6.772;2023-11-21T08:54:07;94918.84;;;-144.06;27.07
11017;BME280;54687;50.800;6.772;2023-11-21T08:56:34;94882.84;;;-144.06;26.67
11017;BME280;54687;50.800;6.772;2023-11-21T08:59:02;94872.25;;;-144.06;26.83
11017;BME280;54687;50.800;6.772;2023-11-21T09:01:30;94836.28;;;-144.06;26.83
11017;BME280;54687;50.800;6.772;2023-11-21T09:03:58;94901.91;;;-144.06;26.98
11017;BME280;54687;50.800;6.772;2023-11-21T09:06:24;94884.97;;;-144.06;26.94
11017;BME280;54687;50.800;6.772;2023-11-21T09:08:51;94872.25;;;-144.06;27.03
11017;BME280;54687;50.800;6.772;2023-11-21T09:11:18;94891.31;;;-144.06;26.77
11017;BME280;54687;50.800;6.772;2023-11-21T09:13:44;94963.28;;;-144.06;26.87
11017;BME280;54687;50.800;6.772;2023-11-21T09:16:14;94884.97;;;-144.06;26.93
11017;BME280;54687;50.800;6.772;2023-11-21T09:18:41;94863.78;;;-144.06;26.95
11017;BME280;54687;50.800;6.772;2023-11-21T09:21:08;94895.53;;;-144.06;26.89
11017;BME280;54687;50.800;6.772;2023-11-21T09:23:35;94789.69;;;-144.06;26.88
11017;BME280;54687;50.800;6.772;2023-11-21T09:26:02;94817.22;;;-144.06;26.73
11017;BME280;54687;50.800;6.772;2023-11-21T09:28:30;94865.91;;;-144.06;26.71
11017;BME280;54687;50.800;6.772;2023-11-21T09:30:57;94834.16;;;-144.06;26.77
11017;BME280;54687;50.800;6.772;2023-11-21T09:33:25;94810.88;;;-144.06;26.69
11017;BME280;54687;50.800;6.772;2023-11-21T09:35:51;94808.75;;;-144.06;26.53
11017;BME280;54687;50.800;6.772;2023-11-21T09:38:18;94796.06;;;-144.06;26.88
11017;BME280;54687;50.800;6.772;2023-11-21T09:40:44;94855.31;;;-144.06;26.68
11017;BME280;54687;50.800;6.772;2023-11-21T09:43:16;94895.53;;;-144.06;26.76
11017;BME280;54687;50.800;6.772;2023-11-21T09:45:45;94889.19;;;-144.06;26.97
11017;BME280;54687;50.800;6.772;2023-11-21T09:48:12;94865.91;;;-144.06;26.88
11017;BME280;54687;50.800;6.772;2023-11-21T09:50:41;94969.63;;;-144.06;26.75
11017;BME280;54687;50.800;6.772;2023-11-21T09:53:13;94950.59;;;-144.06;26.93
11017;BME280;54687;50.800;6.772;2023-11-21T09:55:43;94999.28;;;-144.06;26.98
11017;BME280;54687;50.800;6.772;2023-11-21T09:58:10;95035.28;;;-144.06;27.05
11017;BME280;54687;50.800;6.772;2023-11-21T10:00:40;94927.31;;;-144.06;26.96
11017;BME280;54687;50.800;6.772;2023-11-21T10:03:07;94889.19;;;-144.06;26.88
11017;BME280;54687;50.800;6.772;2023-11-21T10:05:34;94887.09;;;-144.06;26.77
11017;BME280;54687;50.800;6.772;2023-11-21T10:08:03;94857.44;;;-144.06;26.69
11017;BME280;54687;50.800;6.772;2023-11-21T10:10:32;94887.09;;;-144.06;26.86
11017;BME280;54687;50.800;6.772;2023-11-21T10:13:02;94855.31;;;-144.06;26.74
11017;BME280;54687;50.800;6.772;2023-11-21T10:15:33;94870.16;;;-144.06;26.68
11017;BME280;54687;50.800;6.772;2023-11-21T10:18:02;94796.06;;;-144.06;26.82
11017;BME280;54687;50.800;6.772;2023-11-21T10:20:30;94798.16;;;-144.06;26.74
11017;BME280;54687;50.800;6.772;2023-11-21T10:22:59;94857.44;;;-144.06;26.80
11017;BME280;54687;50.800;6.772;2023-11-21T10:25:28;94997.16;;;-144.06;26.86
11017;BME280;54687;50.800;6.772;2023-11-21T10:27:58;95094.53;;;-144.06;27.08
11017;BME280;54687;50.800;6.772;2023-11-21T10:30:28;95054.31;;;-144.06;27.10
11017;BME280;54687;50.800;6.772;2023-11-21T10:32:58;95018.34;;;-144.06;27.11
11017;BME280;54687;50.800;6.772;2023-11-21T10:35:38;94992.94;;;-144.06;27.02
11017;BME280;54687;50.800;6.772;2023-11-21T10:38:05;95001.41;;;-144.06;27.10
11017;BME280;54687;50.800;6.772;2023-11-21T10:40:37;94920.94;;;-144.06;26.96
11017;BME280;54687;50.800;6.772;2023-11-21T10:43:06;94865.91;;;-144.06;26.93
11017;BME280;54687;50.800;6.772;2023-11-21T10:45:34;94777.00;;;-144.06;26.61
11017;BME280;54687;50.800;6.772;2023-11-21T10:48:05;94772.75;;;-144.06;26.54
11017;BME280;54687;50.800;6.772;2023-11-21T10:50:32;94690.22;;;-144.06;26.46
11017;BME280;54687;50.800;6.772;2023-11-21T10:53:01;94734.66;;;-144.06;26.47
11017;BME280;54687;50.800;6.772;2023-11-21T10:55:28;94730.44;;;-144.06;26.59
11017;BME280;54687;50.800;6.772;2023-11-21T10:57:58;94717.72;;;-144.06;26.44
11017;BME280;54687;50.800;6.772;2023-11-21T11:00:25;94863.78;;;-144.06;26.65
11017;BME280;54687;50.800;6.772;2023-11-21T11:02:53;94865.91;;;-144.06;26.71
11017;BME280;54687;50.800;6.772;2023-11-21T11:05:22;94834.16;;;-144.06;26.64
11017;BME280;54687;50.800;6.772;2023-11-21T11:07:51;94777.00;;;-144.06;26.78
11017;BME280;54687;50.800;6.772;2023-11-21T11:10:20;94760.06;;;-144.06;26.51
11017;BME280;54687;50.800;6.772;2023-11-21T11:12:48;94736.78;;;-144.06;26.55
11017;BME280;54687;50.800;6.772;2023-11-21T11:15:16;94726.19;;;-144.06;26.44
11017;BME280;54687;50.800;6.772;2023-11-21T11:17:43;94760.06;;;-144.06;26.51
11017;BME280;54687;50.800;6.772;2023-11-21T11:20:13;94815.09;;;-144.06;26.39
11017;BME280;54687;50.800;6.772;2023-11-21T11:22:50;94827.81;;;-144.06;26.54
11017;BME280;54687;50.800;6.772;2023-11-21T11:25:35;94870.16;;;-144.06;26.52
11017;BME280;54687;50.800;6.772;2023-11-21T11:28:08;94838.38;;;-144.06;26.78
11017;BME280;54687;50.800;6.772;2023-11-21T11:30:53;94897.66;;;-144.06;26.75
11017;BME280;54687;50.800;6.772;2023-11-21T11:33:35;94872.25;;;-144.06;26.89
11017;BME280;54687;50.800;6.772;2023-11-21T11:36:10;94912.47;;;-144.06;26.69
11017;BME280;54687;50.800;6.772;2023-11-21T11:38:45;94901.91;;;-144.06;26.96
11017;BME280;54687;50.800;6.772;2023-11-21T11:41:24;94876.50;;;-144.06;27.02
11017;BME280;54687;50.800;6.772;2023-11-21T11:43:56;94844.75;;;-144.06;26.84
11017;BME280;54687;50.800;6.772;2023-11-21T11:46:44;94861.69;;;-144.06;26.88
11017;BME280;54687;50.800;6.772;2023-11-21T11:49:26;94874.38;;;-144.06;26.85
11017;BME280;54687;50.800;6.772;2023-11-21T11:54:55;94861.69;;;-144.06;26.85
11017;BME280;54687;50.800;6.772;2023-11-21T11:57:24;94832.03;;;-144.06;26.69
11017;BME280;54687;50.800;6.772;2023-11-21T12:00:11;94806.63;;;-144.06;26.62
11017;BME280;54687;50.800;6.772;2023-11-21T12:02:51;94783.34;;;-144.06;26.61
11017;BME280;54687;50.800;6.772;2023-11-21T12:05:20;94749.47;;;-144.06;26.62
11017;BME280;54687;50.800;6.772;2023-11-21T12:08:01;94798.16;;;-144.06;26.80
11017;BME280;54687;50.800;6.772;2023-11-21T12:10:41;94777.00;;;-144.06;26.67
11017;BME280;54687;50.800;6.772;2023-11-21T12:13:11;94791.81;;;-144.06;26.87
11017;BME280;54687;50.800;6.772;2023-11-21T12:15:41;94806.63;;;-144.06;26.59
11017;BME280;54687;50.800;6.772;2023-11-21T12:18:10;94823.56;;;-144.06;26.67
11017;BME280;54687;50.800;6.772;2023-11-21T12:20:40;94887.09;;;-144.06;26.78
11017;BME280;54687;50.800;6.772;2023-11-21T12:23:26;94868.03;;;-144.06;26.75
11017;BME280;54687;50.800;6.772;2023-11-21T12:25:56;94855.31;;;-144.06;26.79
11017;BME280;54687;50.800;6.772;2023-11-21T12:28:24;94834.16;;;-144.06;26.74
11017;BME280;54687;50.800;6.772;2023-11-21T12:30:54;94838.38;;;-144.06;26.81
11017;BME280;54687;50.800;6.772;2023-11-21T12:33:24;94889.19;;;-144.06;26.86
11017;BME280;54687;50.800;6.772;2023-11-21T12:35:55;94908.25;;;-144.06;26.83
11017;BME280;54687;50.800;6.772;2023-11-21T12:38:33;94868.03;;;-144.06;26.84
11017;BME280;54687;50.800;6.772;2023-11-21T12:41:00;94840.50;;;-144.06;26.79
11017;BME280;54687;50.800;6.772;2023-11-21T12:43:28;94804.53;;;-144.06;26.83
11017;BME280;54687;50.800;6.772;2023-11-21T12:46:04;94815.09;;;-144.06;26.83
11017;BME280;54687;50.800;6.772;2023-11-21T12:48:33;94810.88;;;-144.06;26.79